createdAt,value
2019-02-23T00:01:58.987Z,62.40
2019-02-23T00:04:30.788Z,63.56
2019-02-23T00:07:02.514Z,63.76
2019-02-23T00:09:34.330Z,63.20
2019-02-23T00:12:06.546Z,63.52
2019-02-23T00:14:38.623Z,64.31
2019-02-23T00:17:10.557Z,64.54
2019-02-23T00:19:43.756Z,65.00
2019-02-23T00:22:15.375Z,64.68
2019-02-23T00:24:47.029Z,64.12
2019-02-23T00:27:18.785Z,64.21
2019-02-23T00:29:50.635Z,64.39
2019-02-23T00:32:22.441Z,64.76
2019-02-23T00:34:54.281Z,64.13
2019-02-23T00:37:26.106Z,63.54
2019-02-23T00:39:57.860Z,63.72
2019-02-23T00:42:29.271Z,63.42
2019-02-23T00:45:00.940Z,63.30
2019-02-23T00:47:32.820Z,63.08
2019-02-23T00:50:04.879Z,63.33
2019-02-23T00:52:36.674Z,63.57
2019-02-23T00:55:08.890Z,62.59
2019-02-23T00:57:40.629Z,63.15
2019-02-23T01:00:14.151Z,63.59
2019-02-23T01:02:45.678Z,63.30
2019-02-23T01:05:17.448Z,62.82
2019-02-23T01:07:49.025Z,62.94
2019-02-23T01:10:20.726Z,61.33
2019-02-23T01:12:54.915Z,60.65
2019-02-23T01:15:26.728Z,60.39
2019-02-23T01:17:58.408Z,59.59
2019-02-23T01:20:30.211Z,58.79
2019-02-23T01:23:01.804Z,57.96
2019-02-23T01:25:33.298Z,57.57
2019-02-23T01:28:05.208Z,57.49
2019-02-23T01:30:37.020Z,57.47
2019-02-23T01:33:08.627Z,57.71
2019-02-23T01:35:40.321Z,57.47
2019-02-23T01:38:11.980Z,58.00
2019-02-23T01:40:43.641Z,58.04
2019-02-23T01:43:15.584Z,57.66
2019-02-23T01:45:48.430Z,57.97
2019-02-23T01:48:20.145Z,58.23
2019-02-23T01:50:54.898Z,58.98
2019-02-23T01:53:26.433Z,58.02
2019-02-23T01:55:58.032Z,58.32
2019-02-23T01:58:29.596Z,58.53
2019-02-23T02:01:01.231Z,57.48
2019-02-23T02:03:32.931Z,57.30
2019-02-23T02:06:04.719Z,57.14
2019-02-23T02:08:36.714Z,57.39
2019-02-23T02:11:08.939Z,57.58
2019-02-23T02:13:40.612Z,57.68
2019-02-23T02:16:12.512Z,57.30
2019-02-23T02:18:44.091Z,56.95
2019-02-23T02:21:15.861Z,54.08
2019-02-23T02:23:47.465Z,53.36
2019-02-23T02:26:19.136Z,52.83
2019-02-23T02:28:50.714Z,52.25
2019-02-23T02:31:22.469Z,50.97
2019-02-23T02:34:15.338Z,49.31
2019-02-23T02:36:47.241Z,48.82
2019-02-23T02:39:19.325Z,47.92
2019-02-23T02:41:50.840Z,47.87
2019-02-23T02:44:22.334Z,47.58
2019-02-23T02:46:57.174Z,46.96
2019-02-23T02:49:28.872Z,46.10
2019-02-23T02:52:00.529Z,45.66
2019-02-23T02:54:32.353Z,43.59
2019-02-23T02:57:04.430Z,42.83
2019-02-23T02:59:36.383Z,41.64
2019-02-23T03:02:08.046Z,41.40
2019-02-23T03:04:39.750Z,40.79
2019-02-23T03:07:11.269Z,41.13
2019-02-23T03:09:43.038Z,40.68
2019-02-23T03:12:14.687Z,41.26
2019-02-23T03:14:46.474Z,40.94
2019-02-23T03:17:18.025Z,40.39
2019-02-23T03:19:49.611Z,40.48
2019-02-23T03:22:21.192Z,39.64
2019-02-23T03:24:52.775Z,39.83
2019-02-23T03:27:24.321Z,39.69
2019-02-23T03:29:56.479Z,39.37
2019-02-23T03:32:28.119Z,39.02
2019-02-23T03:34:59.779Z,39.20
2019-02-23T03:37:32.530Z,38.83
2019-02-23T03:40:04.187Z,38.58
2019-02-23T03:42:35.860Z,38.71
2019-02-23T03:45:07.576Z,38.75
2019-02-23T03:47:39.236Z,38.70
2019-02-23T03:50:10.665Z,38.76
2019-02-23T03:52:42.353Z,39.41
2019-02-23T03:55:13.834Z,40.28
2019-02-23T03:57:45.398Z,39.76
2019-02-23T04:00:17.219Z,39.83
2019-02-23T04:02:49.036Z,39.35
2019-02-23T04:05:20.582Z,39.49
2019-02-23T04:07:52.296Z,39.86
2019-02-23T04:10:24.163Z,39.84
2019-02-23T04:12:55.730Z,39.33
2019-02-23T04:15:27.337Z,39.65
2019-02-23T04:17:59.029Z,39.41
2019-02-23T04:20:30.684Z,38.94
2019-02-23T04:23:02.418Z,38.95
2019-02-23T04:25:34.184Z,38.43
2019-02-23T04:28:05.785Z,38.19
2019-02-23T04:30:37.792Z,38.23
2019-02-23T04:33:09.471Z,37.43
2019-02-23T04:35:41.199Z,37.18
2019-02-23T04:38:12.771Z,35.90
2019-02-23T04:40:44.245Z,34.88
2019-02-23T04:43:16.026Z,34.25
2019-02-23T04:45:47.689Z,32.73
2019-02-23T04:48:19.987Z,32.76
2019-02-23T04:50:52.051Z,32.36
2019-02-23T04:53:23.891Z,32.04
2019-02-23T04:55:55.516Z,32.04
2019-02-23T04:58:28.193Z,31.27
2019-02-23T05:01:00.007Z,30.79
2019-02-23T05:03:31.863Z,30.00
2019-02-23T05:06:03.631Z,29.79
2019-02-23T05:08:36.881Z,29.36
2019-02-23T05:11:08.685Z,29.05
2019-02-23T05:13:40.406Z,28.69
2019-02-23T05:16:12.354Z,29.58
2019-02-23T05:18:44.057Z,28.24
2019-02-23T05:21:26.046Z,27.99
2019-02-23T05:23:48.838Z,28.52
2019-02-23T05:26:20.582Z,28.46
2019-02-23T05:28:52.443Z,28.62
2019-02-23T05:31:24.216Z,28.84
2019-02-23T05:33:55.915Z,28.56
2019-02-23T05:36:27.414Z,29.07
2019-02-23T05:38:59.176Z,29.39
2019-02-23T05:41:30.878Z,28.83
2019-02-23T05:44:03.031Z,28.69
2019-02-23T05:46:34.736Z,27.89
2019-02-23T05:49:06.645Z,28.23
2019-02-23T05:51:39.118Z,28.39
2019-02-23T05:54:10.741Z,26.60
2019-02-23T05:56:42.351Z,26.14
2019-02-23T05:59:14.094Z,25.85
2019-02-23T06:01:45.880Z,25.73
2019-02-23T06:04:17.574Z,25.88
2019-02-23T06:06:49.399Z,24.92
2019-02-23T06:09:21.150Z,25.33
2019-02-23T06:11:52.791Z,25.81
2019-02-23T06:14:24.773Z,25.08
2019-02-23T06:16:56.834Z,24.27
2019-02-23T06:19:28.761Z,25.23
2019-02-23T06:22:00.635Z,26.35
2019-02-23T06:24:32.347Z,25.83
2019-02-23T06:27:04.377Z,26.34
2019-02-23T06:29:36.046Z,26.93
2019-02-23T06:32:07.819Z,26.67
2019-02-23T06:34:39.667Z,26.70
2019-02-23T06:37:11.670Z,26.00
2019-02-23T06:39:43.369Z,25.05
2019-02-23T06:42:15.311Z,24.60
2019-02-23T06:44:47.120Z,24.53
2019-02-23T06:47:18.778Z,24.30
2019-02-23T06:49:50.469Z,23.98
2019-02-23T06:52:22.362Z,23.08
2019-02-23T06:54:54.255Z,22.67
2019-02-23T06:57:26.059Z,21.82
2019-02-23T06:59:58.186Z,19.25
2019-02-23T07:02:29.924Z,19.43
2019-02-23T07:05:01.687Z,17.83
2019-02-23T07:07:33.352Z,16.97
2019-02-23T07:10:05.231Z,16.94
2019-02-23T07:12:37.059Z,16.58
2019-02-23T07:15:09.358Z,16.85
2019-02-23T07:17:41.024Z,16.44
2019-02-23T07:20:13.122Z,17.08
2019-02-23T07:22:45.085Z,17.10
2019-02-23T07:25:16.806Z,17.33
2019-02-23T07:27:48.544Z,20.00
2019-02-23T07:30:20.550Z,21.24
2019-02-23T07:32:53.371Z,22.30
2019-02-23T07:35:25.045Z,23.09
2019-02-23T07:37:58.129Z,25.00
2019-02-23T07:40:29.937Z,24.51
2019-02-23T07:43:01.766Z,25.06
2019-02-23T07:45:33.438Z,26.25
2019-02-23T07:48:05.367Z,26.03
2019-02-23T07:50:37.615Z,26.13
2019-02-23T07:53:09.607Z,26.67
2019-02-23T07:55:41.364Z,25.99
2019-02-23T07:58:13.130Z,24.94
2019-02-23T08:00:44.950Z,24.78
2019-02-23T08:03:16.864Z,24.63
2019-02-23T08:05:48.688Z,23.77
2019-02-23T08:08:20.348Z,24.40
2019-02-23T08:10:52.113Z,23.88
2019-02-23T08:13:24.403Z,23.27
2019-02-23T08:15:56.352Z,23.69
2019-02-23T08:18:28.468Z,23.57
2019-02-23T08:21:00.319Z,23.08
2019-02-23T08:23:32.300Z,23.47
2019-02-23T08:26:04.124Z,23.44
2019-02-23T08:28:35.942Z,23.79
2019-02-23T08:31:07.496Z,22.89
2019-02-23T08:33:39.184Z,22.17
2019-02-23T08:36:11.121Z,21.14
2019-02-23T08:38:43.270Z,22.03
2019-02-23T08:41:15.184Z,21.61
2019-02-23T08:43:47.979Z,21.71
2019-02-23T08:46:19.810Z,20.83
2019-02-23T08:48:51.609Z,20.57
2019-02-23T08:51:23.502Z,21.34
2019-02-23T08:53:55.763Z,21.27
2019-02-23T08:56:27.496Z,19.90
2019-02-23T08:58:59.862Z,18.45
2019-02-23T09:01:31.793Z,17.89
2019-02-23T09:04:03.876Z,17.67
2019-02-23T09:06:35.566Z,18.82
2019-02-23T09:09:08.597Z,18.55
2019-02-23T09:11:40.640Z,17.48
2019-02-23T09:14:13.297Z,17.84
2019-02-23T09:16:45.089Z,18.12
2019-02-23T09:19:17.821Z,17.76
2019-02-23T09:21:49.809Z,17.42
2019-02-23T09:24:21.891Z,17.88
2019-02-23T09:26:53.874Z,19.00
2019-02-23T09:29:25.831Z,18.16
2019-02-23T09:31:57.561Z,18.52
2019-02-23T09:34:29.290Z,18.00
2019-02-23T09:37:01.292Z,18.62
2019-02-23T09:39:33.166Z,19.07
2019-02-23T09:42:07.752Z,19.20
2019-02-23T09:44:39.564Z,18.85
2019-02-23T09:47:11.301Z,18.62
2019-02-23T09:49:42.976Z,17.80
2019-02-23T09:52:15.290Z,18.38
2019-02-23T09:54:47.223Z,18.69
2019-02-23T09:57:18.963Z,18.98
2019-02-23T09:59:50.870Z,18.72
2019-02-23T10:02:22.671Z,18.31
2019-02-23T10:04:54.625Z,18.46
2019-02-23T10:07:26.275Z,17.96
2019-02-23T10:09:58.591Z,17.92
2019-02-23T10:12:30.589Z,18.46
2019-02-23T10:15:02.168Z,19.44
2019-02-23T10:17:34.701Z,18.98
2019-02-23T10:20:07.201Z,19.07
2019-02-23T10:22:39.808Z,19.31
2019-02-23T10:25:12.020Z,19.45
2019-02-23T10:27:44.886Z,19.55
2019-02-23T10:30:16.726Z,19.27
2019-02-23T10:32:48.568Z,18.24
2019-02-23T10:35:20.784Z,18.49
2019-02-23T10:37:52.722Z,18.67
2019-02-23T10:40:24.523Z,18.08
2019-02-23T10:42:56.284Z,17.61
2019-02-23T10:45:28.899Z,17.15
2019-02-23T10:48:00.715Z,17.16
2019-02-23T10:50:32.589Z,16.43
2019-02-23T10:53:05.070Z,16.31
2019-02-23T10:55:36.960Z,17.01
2019-02-23T10:58:09.382Z,16.67
2019-02-23T11:00:41.426Z,16.22
2019-02-23T11:03:14.079Z,16.20
2019-02-23T11:05:45.830Z,16.52
2019-02-23T11:08:17.773Z,16.12
2019-02-23T11:10:49.571Z,15.95
2019-02-23T11:13:21.507Z,16.23
2019-02-23T11:15:53.285Z,15.87
2019-02-23T11:18:24.994Z,15.80
2019-02-23T11:20:57.048Z,16.33
2019-02-23T11:23:28.892Z,16.34
2019-02-23T11:26:01.261Z,15.97
2019-02-23T11:28:33.133Z,14.66
2019-02-23T11:31:04.902Z,15.32
2019-02-23T11:33:37.980Z,14.81
2019-02-23T11:36:10.259Z,15.04
2019-02-23T11:38:42.705Z,15.38
2019-02-23T11:41:14.569Z,15.05
2019-02-23T11:43:46.352Z,15.37
2019-02-23T11:46:18.204Z,14.76
2019-02-23T11:48:50.133Z,15.55
2019-02-23T11:51:22.065Z,15.45
2019-02-23T11:53:55.281Z,15.22
2019-02-23T11:56:28.103Z,14.67
2019-02-23T11:59:00.116Z,14.69
2019-02-23T12:01:32.284Z,14.46
2019-02-23T12:04:04.266Z,14.03
2019-02-23T12:06:36.711Z,14.42
2019-02-23T12:09:08.995Z,14.14
2019-02-23T12:11:41.748Z,14.53
2019-02-23T12:14:13.479Z,13.54
2019-02-23T12:16:45.376Z,12.97
2019-02-23T12:19:17.810Z,13.48
2019-02-23T12:21:50.066Z,13.87
2019-02-23T12:24:22.020Z,14.14
2019-02-23T12:26:54.446Z,14.42
2019-02-23T12:29:26.944Z,14.63
2019-02-23T12:31:58.767Z,14.94
2019-02-23T12:34:30.786Z,16.18
2019-02-23T12:37:03.174Z,16.63
2019-02-23T12:39:35.144Z,16.28
2019-02-23T12:42:07.046Z,16.55
2019-02-23T12:44:39.321Z,17.50
2019-02-23T12:47:11.548Z,17.16
2019-02-23T12:49:43.228Z,16.59
2019-02-23T12:52:14.971Z,16.49
2019-02-23T12:54:46.755Z,16.02
2019-02-23T12:57:19.786Z,15.91
2019-02-23T12:59:52.787Z,15.63
2019-02-23T13:02:24.769Z,15.83
2019-02-23T13:04:56.657Z,16.04
2019-02-23T13:07:28.571Z,15.82
2019-02-23T13:10:00.769Z,16.02
2019-02-23T13:13:25.437Z,16.00
2019-02-23T13:16:07.575Z,16.31
2019-02-23T13:19:45.874Z,16.78
2019-02-23T13:22:57.934Z,16.90
2019-02-23T13:26:09.309Z,16.89
2019-02-23T13:29:49.289Z,16.68
2019-02-23T13:33:23.046Z,16.02
2019-02-23T13:36:47.092Z,15.67
2019-02-23T13:40:04.575Z,16.87
2019-02-23T13:43:51.149Z,16.42
2019-02-23T13:47:07.004Z,15.92
2019-02-23T13:50:18.947Z,15.73
2019-02-23T13:54:13.881Z,16.47
2019-02-23T13:57:59.481Z,16.34
2019-02-23T14:01:31.517Z,16.66
2019-02-23T14:04:57.273Z,16.60
2019-02-23T14:08:27.792Z,16.84
2019-02-23T14:12:01.746Z,17.32
2019-02-23T14:15:25.374Z,17.56
2019-02-23T14:18:48.265Z,17.55
2019-02-23T14:22:19.487Z,17.38
2019-02-23T14:25:53.162Z,17.66
2019-02-23T14:29:26.755Z,16.97
2019-02-23T14:32:39.054Z,17.32
2019-02-23T14:36:00.168Z,16.73
2019-02-23T14:39:48.827Z,17.10
2019-02-23T14:43:06.688Z,16.97
2019-02-23T14:46:29.070Z,17.15
2019-02-23T14:49:42.217Z,16.87
2019-02-23T14:53:36.143Z,17.16
2019-02-23T14:57:28.180Z,15.93
2019-02-23T15:00:20.810Z,16.54
2019-02-23T15:03:47.824Z,16.77
2019-02-23T15:07:03.711Z,16.82
2019-02-23T15:10:17.339Z,17.15
2019-02-23T15:13:19.448Z,16.39
2019-02-23T15:16:50.504Z,16.43
2019-02-23T15:20:08.635Z,16.14
2019-02-23T15:23:30.114Z,16.39
2019-02-23T15:27:05.794Z,16.37
2019-02-23T15:30:58.783Z,16.98
2019-02-23T15:34:02.445Z,17.82
2019-02-23T15:37:00.726Z,18.57
2019-02-23T15:40:15.739Z,17.99
2019-02-23T15:43:52.119Z,18.31
2019-02-23T15:47:28.002Z,18.58
2019-02-23T15:50:12.142Z,19.50
2019-02-23T15:52:33.478Z,19.49
2019-02-23T15:55:05.410Z,18.85
2019-02-23T15:57:37.575Z,18.89
2019-02-23T16:00:09.739Z,19.21
2019-02-23T16:02:41.739Z,19.36
2019-02-23T16:05:13.460Z,19.72
2019-02-23T16:07:45.663Z,20.33
2019-02-23T16:10:18.003Z,21.10
2019-02-23T16:12:50.160Z,21.85
2019-02-23T16:15:22.423Z,22.45
2019-02-23T16:17:54.226Z,22.63
2019-02-23T16:20:26.218Z,22.37
2019-02-23T16:22:58.095Z,22.19
2019-02-23T16:25:38.396Z,22.27
2019-02-23T16:28:04.219Z,22.48
2019-02-23T16:30:37.147Z,22.75
2019-02-23T16:33:09.398Z,23.34
2019-02-23T16:35:41.957Z,23.26
2019-02-23T16:38:14.762Z,24.03
2019-02-23T16:40:50.229Z,24.41
2019-02-23T16:43:20.736Z,25.66
2019-02-23T16:45:53.950Z,25.60
2019-02-23T16:48:25.864Z,26.53
2019-02-23T16:50:59.561Z,26.93
2019-02-23T16:53:31.488Z,27.69
2019-02-23T16:56:03.640Z,27.83
2019-02-23T16:58:37.248Z,28.06
2019-02-23T17:01:10.485Z,28.19
2019-02-23T17:03:42.518Z,28.60
2019-02-23T17:06:14.304Z,29.20
2019-02-23T17:08:46.212Z,29.18
2019-02-23T17:11:19.301Z,28.96
2019-02-23T17:13:51.381Z,29.51
2019-02-23T17:16:24.033Z,29.21
2019-02-23T17:18:56.799Z,29.40
2019-02-23T17:21:29.183Z,29.67
2019-02-23T17:24:01.186Z,29.91
2019-02-23T17:26:36.616Z,29.98
2019-02-23T17:29:08.965Z,29.99
2019-02-23T17:31:41.879Z,30.40
2019-02-23T17:34:14.407Z,30.76
2019-02-23T17:36:46.459Z,30.97
2019-02-23T17:39:21.574Z,31.69
2019-02-23T17:41:54.284Z,31.99
2019-02-23T17:44:26.533Z,32.18
2019-02-23T17:46:59.524Z,32.50
2019-02-23T17:49:31.437Z,32.69
2019-02-23T17:52:03.355Z,32.96
2019-02-23T17:54:35.546Z,33.20
2019-02-23T17:57:08.257Z,33.56
2019-02-23T17:59:40.618Z,33.71
2019-02-23T18:02:14.492Z,33.70
2019-02-23T18:04:46.757Z,34.00
2019-02-23T18:07:18.572Z,34.08
2019-02-23T18:09:51.028Z,34.44
2019-02-23T18:12:23.330Z,34.40
2019-02-23T18:14:55.829Z,34.40
2019-02-23T18:17:29.761Z,34.75
2019-02-23T18:20:05.269Z,35.01
2019-02-23T18:22:37.120Z,35.30
2019-02-23T18:25:11.757Z,35.36
2019-02-23T18:27:44.643Z,35.67
2019-02-23T18:30:16.775Z,35.70
2019-02-23T18:32:49.005Z,35.92
2019-02-23T18:35:22.852Z,36.04
2019-02-23T18:37:55.153Z,36.35
2019-02-23T18:40:27.196Z,35.98
2019-02-23T18:42:59.479Z,36.02
2019-02-23T18:45:33.311Z,35.95
2019-02-23T18:48:07.618Z,36.22
2019-02-23T18:50:40.079Z,36.30
2019-02-23T18:53:12.339Z,36.35
2019-02-23T18:55:44.556Z,36.61
2019-02-23T18:58:17.194Z,36.63
2019-02-23T19:00:49.977Z,36.84
2019-02-23T19:03:22.298Z,36.56
2019-02-23T19:05:54.661Z,36.70
2019-02-23T19:08:26.720Z,36.33
2019-02-23T19:10:58.767Z,36.66
2019-02-23T19:13:31.302Z,36.42
2019-02-23T19:16:03.175Z,36.29
2019-02-23T19:18:35.314Z,36.32
2019-02-23T19:21:07.553Z,36.68
2019-02-23T19:23:41.344Z,36.56
2019-02-23T19:26:13.538Z,36.51
2019-02-23T19:28:47.468Z,36.63
2019-02-23T19:31:19.998Z,36.39
2019-02-23T19:33:52.165Z,36.48
2019-02-23T19:36:24.572Z,36.43
2019-02-23T19:38:56.665Z,36.88
2019-02-23T19:41:28.959Z,37.18
2019-02-23T19:44:02.008Z,37.48
2019-02-23T19:46:35.813Z,37.99
2019-02-23T19:49:08.723Z,37.54
2019-02-23T19:51:41.926Z,37.94
2019-02-23T19:54:14.518Z,37.71
2019-02-23T19:56:48.485Z,37.97
2019-02-23T19:59:20.885Z,38.17
2019-02-23T20:01:53.905Z,37.91
2019-02-23T20:04:27.503Z,37.65
2019-02-23T20:07:01.118Z,37.83
2019-02-23T20:09:34.688Z,38.18
2019-02-23T20:12:07.882Z,37.30
2019-02-23T20:14:40.939Z,38.00
2019-02-23T20:17:14.619Z,38.71
2019-02-23T20:19:47.218Z,39.18
2019-02-23T20:22:19.121Z,38.77
2019-02-23T20:24:51.765Z,39.54
2019-02-23T20:27:23.889Z,39.97
2019-02-23T20:29:56.600Z,40.06
2019-02-23T20:32:28.960Z,39.86
2019-02-23T20:35:01.110Z,39.06
2019-02-23T20:37:33.127Z,39.30
2019-02-23T20:40:06.827Z,39.51
2019-02-23T20:42:39.707Z,39.67
2019-02-23T20:45:13.633Z,39.93
2019-02-23T20:47:46.619Z,39.81
2019-02-23T20:50:21.848Z,39.89
2019-02-23T20:52:54.673Z,39.10
2019-02-23T20:55:27.729Z,38.99
2019-02-23T20:58:00.116Z,39.83
2019-02-23T21:00:34.780Z,39.39
2019-02-23T21:03:07.889Z,39.21
2019-02-23T21:05:40.570Z,39.32
2019-02-23T21:08:13.696Z,40.12
2019-02-23T21:10:46.627Z,40.54
2019-02-23T21:13:19.655Z,41.06
2019-02-23T21:15:52.244Z,41.80
2019-02-23T21:18:25.638Z,40.97
2019-02-23T21:20:58.022Z,41.67
2019-02-23T21:23:30.265Z,42.12
2019-02-23T21:26:02.662Z,42.10
2019-02-23T21:28:34.788Z,42.56
2019-02-23T21:31:07.062Z,43.00
2019-02-23T21:33:39.034Z,42.84
2019-02-23T21:36:11.011Z,43.38
2019-02-23T21:38:44.189Z,44.03
2019-02-23T21:41:16.611Z,43.84
2019-02-23T21:43:48.923Z,43.29
2019-02-23T21:46:20.711Z,43.24
2019-02-23T21:48:52.755Z,44.14
2019-02-23T21:51:24.687Z,44.42
2019-02-23T21:53:56.951Z,44.45
2019-02-23T21:56:29.195Z,44.38
2019-02-23T21:59:01.203Z,44.48
2019-02-23T22:01:33.351Z,44.36
2019-02-23T22:04:05.403Z,45.19
2019-02-23T22:06:37.576Z,45.08
2019-02-23T22:09:09.896Z,45.38
2019-02-23T22:11:41.690Z,45.82
2019-02-23T22:14:13.486Z,46.05
2019-02-23T22:16:45.913Z,46.23
2019-02-23T22:19:17.682Z,46.19
2019-02-23T22:21:50.147Z,46.39
2019-02-23T22:24:21.926Z,46.73
2019-02-23T22:26:53.558Z,47.21
2019-02-23T22:29:25.420Z,47.60
2019-02-23T22:31:57.296Z,47.90
2019-02-23T22:34:29.399Z,47.88
2019-02-23T22:37:01.221Z,47.96
2019-02-23T22:39:33.180Z,47.33
2019-02-23T22:42:05.381Z,47.16
2019-02-23T22:44:37.991Z,47.37
2019-02-23T22:47:10.997Z,47.46
2019-02-23T22:49:43.172Z,47.21
2019-02-23T22:52:15.116Z,46.48
2019-02-23T22:54:47.010Z,46.34
2019-02-23T22:57:19.043Z,46.28
2019-02-23T22:59:51.067Z,46.51
2019-02-23T23:02:22.894Z,47.07
2019-02-23T23:04:54.927Z,47.36
2019-02-23T23:07:27.816Z,47.78
2019-02-23T23:09:59.987Z,48.10
2019-02-23T23:12:32.065Z,48.56
2019-02-23T23:15:04.138Z,48.65
2019-02-23T23:17:35.775Z,48.42
2019-02-23T23:20:08.138Z,48.20
2019-02-23T23:22:40.151Z,48.02
2019-02-23T23:25:12.168Z,47.95
2019-02-23T23:27:49.301Z,47.77
2019-02-23T23:30:17.300Z,48.36
2019-02-23T23:32:48.952Z,48.48
2019-02-23T23:35:20.886Z,48.80
2019-02-23T23:37:52.697Z,49.05
2019-02-23T23:40:24.588Z,48.66
2019-02-23T23:42:58.330Z,49.14
2019-02-23T23:45:30.264Z,49.08
2019-02-23T23:48:02.374Z,49.14
2019-02-23T23:50:35.456Z,49.46
2019-02-23T23:53:06.988Z,49.63
2019-02-23T23:55:38.968Z,49.93
2019-02-23T23:58:10.626Z,49.65
